createdAt,value
2018-12-08T00:01:35.614Z,99056.03
2018-12-08T00:04:03.900Z,99060.66
2018-12-08T00:06:32.471Z,99051.30
2018-12-08T00:09:01.266Z,99059.53
2018-12-08T00:11:29.458Z,99079.77
2018-12-08T00:13:57.727Z,99083.50
2018-12-08T00:16:25.916Z,99080.89
2018-12-08T00:18:54.240Z,99089.27
2018-12-08T00:21:22.394Z,99099.41
2018-12-08T00:23:50.570Z,99117.34
2018-12-08T00:26:19.093Z,99121.16
2018-12-08T00:28:47.604Z,99117.13
2018-12-08T00:31:33.986Z,99108.28
2018-12-08T00:34:02.288Z,99112.42
2018-12-08T00:36:30.528Z,99107.50
2018-12-08T00:38:59.972Z,99111.08
2018-12-08T00:41:28.344Z,99113.66
2018-12-08T00:43:56.672Z,99114.45
2018-12-08T00:46:24.949Z,99119.27
2018-12-08T00:48:53.138Z,99118.03
2018-12-08T00:51:21.551Z,99122.40
2018-12-08T00:53:51.136Z,99136.41
2018-12-08T00:56:19.902Z,99146.02
2018-12-08T00:58:48.046Z,99148.58
2018-12-08T01:01:16.269Z,99144.24
2018-12-08T01:03:44.748Z,99151.97
2018-12-08T01:06:13.526Z,99166.20
2018-12-08T01:08:41.772Z,99180.82
2018-12-08T01:11:09.993Z,99170.37
2018-12-08T01:13:39.868Z,99177.77
2018-12-08T01:16:08.269Z,99175.97
2018-12-08T01:18:36.564Z,99176.12
2018-12-08T01:21:04.795Z,99183.52
2018-12-08T01:23:33.142Z,99194.38
2018-12-08T01:26:01.267Z,99191.55
2018-12-08T01:28:29.414Z,99194.37
2018-12-08T01:30:57.811Z,99196.83
2018-12-08T01:33:26.122Z,99203.11
2018-12-08T01:35:54.429Z,99194.00
2018-12-08T01:38:22.699Z,99188.36
2018-12-08T01:40:51.078Z,99180.69
2018-12-08T01:43:19.395Z,99189.70
2018-12-08T01:45:47.665Z,99196.45
2018-12-08T01:48:15.906Z,99195.80
2018-12-08T01:50:44.154Z,99199.41
2018-12-08T01:53:12.533Z,99195.44
2018-12-08T01:55:40.910Z,99195.92
2018-12-08T01:58:09.118Z,99190.11
2018-12-08T02:00:37.290Z,99189.22
2018-12-08T02:03:05.471Z,99195.09
2018-12-08T02:05:33.789Z,99190.02
2018-12-08T02:08:02.325Z,99192.11
2018-12-08T02:10:30.703Z,99197.09
2018-12-08T02:12:58.877Z,99182.80
2018-12-08T02:15:27.156Z,99200.00
2018-12-08T02:17:56.336Z,99197.69
2018-12-08T02:20:24.598Z,99210.33
2018-12-08T02:22:52.941Z,99215.52
2018-12-08T02:25:21.628Z,99206.06
2018-12-08T02:27:49.899Z,99210.75
2018-12-08T02:30:19.331Z,99213.71
2018-12-08T02:32:47.552Z,99207.78
2018-12-08T02:35:15.766Z,99211.32
2018-12-08T02:37:44.300Z,99224.04
2018-12-08T02:40:13.464Z,99228.21
2018-12-08T02:42:41.668Z,99237.64
2018-12-08T02:45:09.993Z,99240.39
2018-12-08T02:47:38.141Z,99235.30
2018-12-08T02:50:06.693Z,99246.28
2018-12-08T02:52:35.425Z,99243.61
2018-12-08T02:55:04.015Z,99250.62
2018-12-08T02:57:32.221Z,99246.51
2018-12-08T03:00:00.523Z,99249.81
2018-12-08T03:02:28.768Z,99250.42
2018-12-08T03:04:56.941Z,99259.97
2018-12-08T03:07:25.283Z,99248.70
2018-12-08T03:09:53.458Z,99255.72
2018-12-08T03:12:22.706Z,99260.19
2018-12-08T03:14:50.852Z,99267.10
2018-12-08T03:17:19.217Z,99273.41
2018-12-08T03:19:47.316Z,99279.48
2018-12-08T03:22:15.703Z,99263.77
2018-12-08T03:24:44.139Z,99272.02
2018-12-08T03:27:12.531Z,99261.47
2018-12-08T03:29:40.830Z,99264.59
2018-12-08T03:32:09.144Z,99271.52
2018-12-08T03:34:37.281Z,99286.39
2018-12-08T03:37:05.632Z,99285.00
2018-12-08T03:39:33.810Z,99288.12
2018-12-08T03:42:02.367Z,99289.30
2018-12-08T03:44:30.543Z,99286.56
2018-12-08T03:46:59.891Z,99291.81
2018-12-08T03:49:28.093Z,99291.09
2018-12-08T03:51:56.374Z,99297.48
2018-12-08T03:54:24.570Z,99301.11
2018-12-08T03:56:52.843Z,99315.71
2018-12-08T03:59:21.035Z,99323.81
2018-12-08T04:01:49.223Z,99321.70
2018-12-08T04:04:17.678Z,99321.36
2018-12-08T04:06:46.053Z,99324.30
2018-12-08T04:09:14.365Z,99326.81
2018-12-08T04:11:42.751Z,99330.21
2018-12-08T04:14:10.938Z,99330.50
2018-12-08T04:16:41.096Z,99339.70
2018-12-08T04:19:09.406Z,99347.90
2018-12-08T04:21:37.790Z,99350.27
2018-12-08T04:24:06.010Z,99353.33
2018-12-08T04:26:34.122Z,99356.91
2018-12-08T04:29:02.294Z,99357.42
2018-12-08T04:31:30.432Z,99356.84
2018-12-08T04:33:58.627Z,99356.84
2018-12-08T04:36:27.179Z,99354.31
2018-12-08T04:38:56.048Z,99356.34
2018-12-08T04:41:24.245Z,99364.88
2018-12-08T04:43:52.624Z,99367.94
2018-12-08T04:46:20.770Z,99377.09
2018-12-08T04:48:49.116Z,99376.25
2018-12-08T04:51:17.304Z,99376.94
2018-12-08T04:53:45.619Z,99382.47
2018-12-08T04:56:13.791Z,99380.95
2018-12-08T04:58:42.127Z,99374.92
2018-12-08T05:01:10.454Z,99378.72
2018-12-08T05:03:38.627Z,99380.09
2018-12-08T05:06:06.768Z,99390.75
2018-12-08T05:08:34.946Z,99390.11
2018-12-08T05:11:04.000Z,99395.31
2018-12-08T05:13:32.389Z,99390.54
2018-12-08T05:16:01.562Z,99391.19
2018-12-08T05:18:29.927Z,99393.03
2018-12-08T05:20:58.208Z,99382.19
2018-12-08T05:23:26.355Z,99385.88
2018-12-08T05:25:54.582Z,99387.50
2018-12-08T05:28:22.896Z,99394.88
2018-12-08T05:30:51.133Z,99383.48
2018-12-08T05:33:19.440Z,99395.13
2018-12-08T05:35:47.626Z,99395.75
2018-12-08T05:38:15.762Z,99395.75
2018-12-08T05:40:43.942Z,99404.20
2018-12-08T05:43:12.397Z,99402.44
2018-12-08T05:45:40.527Z,99403.33
2018-12-08T05:48:08.814Z,99405.09
2018-12-08T05:50:37.225Z,99403.36
2018-12-08T05:53:05.542Z,99383.80
2018-12-08T05:55:33.729Z,99374.13
2018-12-08T05:58:02.029Z,99383.48
2018-12-08T06:00:30.902Z,99388.40
2018-12-08T06:02:59.099Z,99387.53
2018-12-08T06:05:27.972Z,99385.59
2018-12-08T06:07:56.317Z,99374.78
2018-12-08T06:10:24.605Z,99380.81
2018-12-08T06:12:53.829Z,99385.55
2018-12-08T06:15:22.001Z,99399.95
2018-12-08T06:17:50.316Z,99393.67
2018-12-08T06:20:18.618Z,99394.20
2018-12-08T06:22:46.906Z,99389.95
2018-12-08T06:25:28.202Z,99390.14
2018-12-08T06:28:15.637Z,99385.70
2018-12-08T06:30:43.881Z,99375.73
2018-12-08T06:33:12.200Z,99379.74
2018-12-08T06:35:40.399Z,99384.47
2018-12-08T06:38:08.791Z,99386.34
2018-12-08T06:40:37.269Z,99384.81
2018-12-08T06:43:05.777Z,99380.92
2018-12-08T06:45:34.119Z,99383.14
2018-12-08T06:48:02.833Z,99387.03
2018-12-08T06:50:30.965Z,99398.98
2018-12-08T06:53:00.962Z,99399.62
2018-12-08T06:55:29.418Z,99397.91
2018-12-08T06:57:57.836Z,99397.56
2018-12-08T07:00:26.171Z,99398.69
2018-12-08T07:02:54.312Z,99394.07
2018-12-08T07:05:22.549Z,99388.42
2018-12-08T07:07:50.886Z,99377.92
2018-12-08T07:10:19.009Z,99379.62
2018-12-08T07:12:47.375Z,99381.16
2018-12-08T07:15:15.512Z,99383.75
2018-12-08T07:17:43.733Z,99376.67
2018-12-08T07:20:11.917Z,99374.28
2018-12-08T07:22:40.089Z,99372.88
2018-12-08T07:25:08.700Z,99374.61
2018-12-08T07:27:36.872Z,99375.78
2018-12-08T07:30:08.478Z,99376.69
2018-12-08T07:32:38.978Z,99372.31
2018-12-08T07:35:08.031Z,99370.66
2018-12-08T07:37:36.195Z,99370.29
2018-12-08T07:40:06.804Z,99374.88
2018-12-08T07:42:34.932Z,99386.27
2018-12-08T07:45:03.749Z,99376.02
2018-12-08T07:47:31.918Z,99387.96
2018-12-08T07:50:00.415Z,99383.00
2018-12-08T07:52:28.580Z,99387.49
2018-12-08T07:54:56.873Z,99384.52
2018-12-08T07:57:25.798Z,99387.25
2018-12-08T07:59:53.983Z,99382.50
2018-12-08T08:02:34.696Z,99371.34
2018-12-08T08:05:03.292Z,99370.48
2018-12-08T08:07:31.619Z,99358.22
2018-12-08T08:10:06.518Z,99349.59
2018-12-08T08:12:34.785Z,99343.36
2018-12-08T08:15:12.938Z,99343.44
2018-12-08T08:17:41.243Z,99342.61
2018-12-08T08:20:11.053Z,99338.42
2018-12-08T08:22:39.829Z,99342.67
2018-12-08T08:25:10.947Z,99343.70
2018-12-08T08:27:39.263Z,99354.84
2018-12-08T08:30:10.902Z,99347.66
2018-12-08T08:32:39.957Z,99344.16
2018-12-08T08:35:08.726Z,99348.88
2018-12-08T08:37:36.979Z,99348.13
2018-12-08T08:40:08.392Z,99357.22
2018-12-08T08:42:36.780Z,99349.09
2018-12-08T08:45:07.026Z,99357.39
2018-12-08T08:47:35.369Z,99350.00
2018-12-08T08:50:05.496Z,99347.00
2018-12-08T08:52:33.956Z,99351.66
2018-12-08T08:55:02.272Z,99342.78
2018-12-08T08:57:30.658Z,99343.83
2018-12-08T08:59:58.832Z,99340.84
2018-12-08T09:02:27.028Z,99351.28
2018-12-08T09:04:55.155Z,99344.41
2018-12-08T09:07:23.282Z,99339.03
2018-12-08T09:09:51.419Z,99337.23
2018-12-08T09:12:19.784Z,99331.41
2018-12-08T09:14:48.159Z,99326.81
2018-12-08T09:17:16.439Z,99337.74
2018-12-08T09:19:44.610Z,99325.06
2018-12-08T09:22:12.768Z,99318.16
2018-12-08T09:24:40.911Z,99304.98
2018-12-08T09:27:11.452Z,99309.60
2018-12-08T09:29:39.771Z,99309.60
2018-12-08T09:32:07.942Z,99300.13
2018-12-08T09:34:36.613Z,99315.20
2018-12-08T09:37:05.049Z,99310.56
2018-12-08T09:39:33.299Z,99310.16
2018-12-08T09:42:01.608Z,99299.67
2018-12-08T09:44:29.761Z,99295.45
2018-12-08T09:46:57.960Z,99294.94
2018-12-08T09:49:26.152Z,99286.60
2018-12-08T09:51:54.306Z,99288.87
2018-12-08T09:54:22.464Z,99283.70
2018-12-08T09:56:50.606Z,99282.00
2018-12-08T09:59:18.768Z,99271.38
2018-12-08T10:01:46.977Z,99267.81
2018-12-08T10:04:15.261Z,99267.53
2018-12-08T10:06:43.444Z,99267.28
2018-12-08T10:09:11.604Z,99263.48
2018-12-08T10:11:39.763Z,99266.17
2018-12-08T10:14:07.952Z,99257.70
2018-12-08T10:16:36.080Z,99257.41
2018-12-08T10:19:04.437Z,99253.89
2018-12-08T10:21:32.754Z,99244.70
2018-12-08T10:26:44.313Z,99247.30
2018-12-08T10:29:12.566Z,99240.81
2018-12-08T10:31:40.855Z,99247.83
2018-12-08T10:34:09.045Z,99243.69
2018-12-08T10:36:37.332Z,99244.45
2018-12-08T10:39:08.311Z,99239.77
2018-12-08T10:41:36.635Z,99232.81
2018-12-08T10:44:04.989Z,99231.98
2018-12-08T10:46:33.363Z,99222.76
2018-12-08T10:49:01.578Z,99219.62
2018-12-08T10:51:30.403Z,99215.27
2018-12-08T10:53:59.120Z,99216.48
2018-12-08T10:56:27.948Z,99215.92
2018-12-08T10:58:56.116Z,99199.66
2018-12-08T11:01:28.976Z,99196.76
2018-12-08T11:03:57.483Z,99203.28
2018-12-08T11:06:25.704Z,99196.10
2018-12-08T11:08:53.829Z,99192.27
2018-12-08T11:11:21.938Z,99180.95
2018-12-08T11:13:50.090Z,99178.27
2018-12-08T11:16:18.249Z,99180.72
2018-12-08T11:18:46.523Z,99162.70
2018-12-08T11:21:14.834Z,99152.38
2018-12-08T11:23:43.221Z,99158.47
2018-12-08T11:26:12.084Z,99146.22
2018-12-08T11:28:40.391Z,99140.98
2018-12-08T11:34:02.476Z,99147.04
2018-12-08T11:36:30.700Z,99149.49
2018-12-08T11:38:59.035Z,99136.55
2018-12-08T11:41:27.252Z,99140.48
2018-12-08T11:43:55.514Z,99139.56
2018-12-08T11:46:23.766Z,99130.64
2018-12-08T11:48:51.949Z,99117.13
2018-12-08T11:51:20.138Z,99123.97
2018-12-08T11:53:48.288Z,99123.78
2018-12-08T11:56:16.585Z,99120.84
2018-12-08T11:58:44.757Z,99118.22
2018-12-08T12:01:12.965Z,99114.55
2018-12-08T12:03:41.153Z,99122.70
2018-12-08T12:06:09.381Z,99122.73
2018-12-08T12:08:37.524Z,99130.39
2018-12-08T12:11:05.720Z,99127.78
2018-12-08T12:13:34.890Z,99126.35
2018-12-08T12:16:03.300Z,99118.16
2018-12-08T12:18:31.507Z,99119.20
2018-12-08T12:20:59.667Z,99119.01
2018-12-08T12:23:27.891Z,99107.59
2018-12-08T12:25:56.056Z,99123.28
2018-12-08T12:28:24.423Z,99101.81
2018-12-08T12:30:52.823Z,99083.70
2018-12-08T12:33:20.983Z,99118.66
2018-12-08T12:35:50.041Z,99113.55
2018-12-08T12:38:18.363Z,99119.63
2018-12-08T12:40:46.580Z,99105.55
2018-12-08T12:43:14.771Z,99104.09
2018-12-08T12:45:43.309Z,99104.95
2018-12-08T12:48:11.683Z,99095.47
2018-12-08T12:50:39.887Z,99100.98
2018-12-08T12:53:08.275Z,99099.49
2018-12-08T12:55:37.700Z,99089.35
2018-12-08T12:58:06.002Z,99084.11
2018-12-08T13:00:34.407Z,99071.83
2018-12-08T13:03:02.581Z,99078.17
2018-12-08T13:05:30.792Z,99073.34
2018-12-08T13:07:58.994Z,99070.80
2018-12-08T13:10:27.195Z,99076.25
2018-12-08T13:12:55.436Z,99078.87
2018-12-08T13:15:23.653Z,99070.29
2018-12-08T13:17:51.824Z,99085.75
2018-12-08T13:20:20.006Z,99072.43
2018-12-08T13:22:48.207Z,99068.30
2018-12-08T13:25:22.139Z,99070.65
2018-12-08T13:27:50.490Z,99080.22
2018-12-08T13:30:18.901Z,99089.52
2018-12-08T13:32:47.251Z,99077.53
2018-12-08T13:35:51.706Z,99070.38
2018-12-08T13:38:20.186Z,99063.66
2018-12-08T13:40:48.473Z,99064.82
2018-12-08T13:43:16.906Z,99053.33
2018-12-08T13:45:45.240Z,99062.06
2018-12-08T13:48:16.114Z,99049.54
2018-12-08T13:50:44.600Z,99063.47
2018-12-08T13:53:12.810Z,99062.13
2018-12-08T13:55:41.223Z,99069.91
2018-12-08T13:58:10.043Z,99061.59
2018-12-08T14:00:38.538Z,99059.81
2018-12-08T14:03:06.930Z,99066.11
2018-12-08T14:05:35.257Z,99063.56
2018-12-08T14:08:03.543Z,99057.95
2018-12-08T14:10:31.834Z,99061.98
2018-12-08T14:13:00.009Z,99045.28
2018-12-08T14:15:28.331Z,99047.31
2018-12-08T14:17:56.564Z,99043.52
2018-12-08T14:20:29.095Z,99048.65
2018-12-08T14:22:57.461Z,99051.05
2018-12-08T14:25:25.998Z,99063.53
2018-12-08T14:27:54.293Z,99052.09
2018-12-08T14:30:22.555Z,99055.09
2018-12-08T14:32:51.289Z,99056.98
2018-12-08T14:35:19.611Z,99056.70
2018-12-08T14:37:48.399Z,99056.64
2018-12-08T14:40:16.731Z,99058.39
2018-12-08T14:42:44.935Z,99063.83
2018-12-08T14:45:13.511Z,99057.91
2018-12-08T14:47:41.726Z,99059.70
2018-12-08T14:50:11.330Z,99057.98
2018-12-08T14:52:39.577Z,99076.16
2018-12-08T14:55:09.409Z,99074.06
2018-12-08T14:57:37.742Z,99063.66
2018-12-08T15:00:13.164Z,99072.14
2018-12-08T15:02:41.771Z,99059.61
2018-12-08T15:05:11.137Z,99068.70
2018-12-08T15:07:39.412Z,99064.16
2018-12-08T15:10:12.246Z,99074.27
2018-12-08T15:12:40.457Z,99072.25
2018-12-08T15:15:09.982Z,99068.00
2018-12-08T15:17:38.220Z,99057.50
2018-12-08T15:20:08.746Z,99068.00
2018-12-08T15:22:37.066Z,99071.34
2018-12-08T15:25:08.281Z,99074.38
2018-12-08T15:27:36.625Z,99070.35
2018-12-08T15:30:07.068Z,99072.97
2018-12-08T15:32:35.256Z,99065.70
2018-12-08T15:35:05.927Z,99073.28
2018-12-08T15:37:34.179Z,99073.77
2018-12-08T15:40:05.249Z,99072.21
2018-12-08T15:42:33.520Z,99072.90
2018-12-08T15:45:02.079Z,99071.59
2018-12-08T15:47:30.283Z,99078.14
2018-12-08T15:49:58.554Z,99077.11
2018-12-08T15:52:26.764Z,99078.75
2018-12-08T15:54:54.963Z,99082.45
2018-12-08T15:57:24.183Z,99081.20
2018-12-08T15:59:52.508Z,99078.72
2018-12-08T16:02:20.769Z,99083.09
2018-12-08T16:04:49.315Z,99078.20
2018-12-08T16:07:18.107Z,99073.21
2018-12-08T16:09:46.499Z,99086.51
2018-12-08T16:12:15.722Z,99085.65
2018-12-08T16:14:43.884Z,99089.06
2018-12-08T16:19:39.818Z,99110.66
2018-12-08T16:22:07.978Z,99112.21
2018-12-08T16:24:36.222Z,99102.32
2018-12-08T16:27:04.526Z,99098.39
2018-12-08T16:29:32.739Z,99097.70
2018-12-08T16:32:01.055Z,99091.81
2018-12-08T16:34:29.230Z,99091.52
2018-12-08T16:36:57.652Z,99076.41
2018-12-08T16:39:26.009Z,99068.89
2018-12-08T16:41:54.174Z,99068.78
2018-12-08T16:44:22.569Z,99070.31
2018-12-08T16:46:51.900Z,99060.32
2018-12-08T16:49:20.325Z,99060.67
2018-12-08T16:51:48.526Z,99049.38
2018-12-08T16:54:16.710Z,99056.85
2018-12-08T16:56:44.961Z,99061.59
2018-12-08T16:59:13.297Z,99058.11
2018-12-08T17:01:51.455Z,99054.09
2018-12-08T17:04:20.935Z,99056.30
2018-12-08T17:06:49.653Z,99053.72
2018-12-08T17:09:18.025Z,99056.47
2018-12-08T17:11:46.450Z,99050.27
2018-12-08T17:14:14.726Z,99053.23
2018-12-08T17:16:43.010Z,99066.22
2018-12-08T17:19:11.319Z,99055.58
2018-12-08T17:21:39.671Z,99063.91
2018-12-08T17:24:07.966Z,99056.13
2018-12-08T17:26:36.161Z,99054.81
2018-12-08T17:29:06.086Z,99066.42
2018-12-08T17:31:34.805Z,99053.67
2018-12-08T17:34:03.063Z,99052.34
2018-12-08T17:36:31.321Z,99043.66
2018-12-08T17:38:59.676Z,99039.94
2018-12-08T17:41:27.817Z,99044.96
2018-12-08T17:43:56.026Z,99038.42
2018-12-08T17:46:24.274Z,99040.66
2018-12-08T17:48:52.490Z,99038.66
2018-12-08T17:51:20.685Z,99035.46
2018-12-08T17:53:48.884Z,99038.01
2018-12-08T17:56:17.035Z,99020.37
2018-12-08T17:58:45.173Z,99025.02
2018-12-08T18:01:13.421Z,99017.95
2018-12-08T18:03:41.559Z,99023.47
2018-12-08T18:06:09.764Z,99019.48
2018-12-08T18:08:38.016Z,99024.92
2018-12-08T18:11:06.116Z,99028.40
2018-12-08T18:13:35.004Z,99019.00
2018-12-08T18:16:03.388Z,99022.53
2018-12-08T18:18:31.769Z,99020.33
2018-12-08T18:20:59.886Z,99017.33
2018-12-08T18:23:28.662Z,99023.94
2018-12-08T18:25:56.803Z,99022.31
2018-12-08T18:28:25.024Z,99027.92
2018-12-08T18:30:53.294Z,99010.00
2018-12-08T18:33:21.892Z,99017.46
2018-12-08T18:35:50.360Z,99016.41
2018-12-08T18:38:18.550Z,99013.94
2018-12-08T18:40:46.752Z,99013.32
2018-12-08T18:43:15.005Z,98990.11
2018-12-08T18:45:43.215Z,98989.25
2018-12-08T18:48:11.471Z,98984.27
2018-12-08T18:50:39.778Z,98976.30
2018-12-08T18:53:09.232Z,98986.02
2018-12-08T18:55:38.439Z,98975.69
2018-12-08T18:58:06.602Z,98978.72
2018-12-08T19:00:35.334Z,98972.95
2018-12-08T19:03:08.008Z,98964.04
2018-12-08T19:05:36.285Z,98962.94
2018-12-08T19:08:04.846Z,98956.50
2018-12-08T19:10:33.032Z,98957.28
2018-12-08T19:13:01.171Z,98957.98
2018-12-08T19:15:29.468Z,98959.04
2018-12-08T19:17:57.633Z,98942.25
2018-12-08T19:20:25.989Z,98949.08
2018-12-08T19:22:54.133Z,98940.92
2018-12-08T19:25:22.429Z,98948.16
2018-12-08T19:27:50.584Z,98942.32
2018-12-08T19:30:18.784Z,98931.53
2018-12-08T19:32:46.961Z,98929.22
2018-12-08T19:35:15.159Z,98925.67
2018-12-08T19:37:43.283Z,98929.50
2018-12-08T19:40:11.542Z,98928.80
2018-12-08T19:42:39.758Z,98920.11
2018-12-08T19:45:08.767Z,98918.14
2018-12-08T19:47:37.651Z,98906.70
2018-12-08T19:50:06.269Z,98915.11
2018-12-08T19:52:34.417Z,98905.69
2018-12-08T19:55:02.793Z,98904.51
2018-12-08T19:57:31.172Z,98900.72
2018-12-08T19:59:59.349Z,98880.78
2018-12-08T20:02:28.092Z,98887.56
2018-12-08T20:07:46.003Z,98868.14
2018-12-08T20:10:14.295Z,98869.48
2018-12-08T20:12:42.427Z,98866.68
2018-12-08T20:15:12.440Z,98858.29
2018-12-08T20:17:40.625Z,98860.62
2018-12-08T20:20:09.681Z,98855.38
2018-12-08T20:22:37.978Z,98840.23
2018-12-08T20:25:06.323Z,98850.20
2018-12-08T20:27:34.600Z,98861.27
2018-12-08T20:30:03.330Z,98853.81
2018-12-08T20:32:31.508Z,98858.23
2018-12-08T20:34:59.671Z,98849.34
2018-12-08T20:37:27.876Z,98845.36
2018-12-08T20:39:56.117Z,98841.73
2018-12-08T20:42:24.920Z,98839.61
2018-12-08T20:44:53.092Z,98829.11
2018-12-08T20:47:21.567Z,98839.95
2018-12-08T20:49:49.749Z,98823.18
2018-12-08T20:52:17.928Z,98813.91
2018-12-08T20:54:46.102Z,98808.62
2018-12-08T20:57:14.360Z,98795.28
2018-12-08T20:59:42.586Z,98785.80
2018-12-08T21:02:10.941Z,98769.29
2018-12-08T21:04:40.948Z,98772.72
2018-12-08T21:07:09.412Z,98760.17
2018-12-08T21:09:37.627Z,98751.63
2018-12-08T21:12:06.757Z,98752.52
2018-12-08T21:14:35.348Z,98745.59
2018-12-08T21:17:03.923Z,98736.38
2018-12-08T21:19:32.135Z,98733.59
2018-12-08T21:22:00.457Z,98728.33
2018-12-08T21:24:28.607Z,98725.19
2018-12-08T21:26:57.045Z,98713.66
2018-12-08T21:29:25.307Z,98715.38
2018-12-08T21:34:39.309Z,98684.95
2018-12-08T21:37:07.545Z,98681.98
2018-12-08T21:39:35.657Z,98673.49
2018-12-08T21:42:03.898Z,98667.16
2018-12-08T21:44:32.113Z,98667.74
2018-12-08T21:47:00.537Z,98654.80
2018-12-08T21:49:28.680Z,98644.75
2018-12-08T21:51:56.846Z,98639.50
2018-12-08T21:54:24.967Z,98620.81
2018-12-08T21:56:53.160Z,98605.69
2018-12-08T21:59:21.318Z,98597.58
2018-12-08T22:01:49.707Z,98587.27
2018-12-08T22:04:18.073Z,98576.59
2018-12-08T22:06:46.291Z,98559.19
2018-12-08T22:09:14.504Z,98542.64
2018-12-08T22:11:42.826Z,98530.93
2018-12-08T22:14:11.110Z,98536.19
2018-12-08T22:16:39.255Z,98520.06
2018-12-08T22:19:07.354Z,98521.97
2018-12-08T22:21:36.323Z,98523.39
2018-12-08T22:24:04.498Z,98514.17
2018-12-08T22:26:32.632Z,98511.86
2018-12-08T22:29:00.796Z,98504.19
2018-12-08T22:31:28.993Z,98505.16
2018-12-08T22:33:57.117Z,98493.59
2018-12-08T22:36:25.293Z,98497.61
2018-12-08T22:38:53.452Z,98496.32
2018-12-08T22:41:21.641Z,98491.83
2018-12-08T22:43:49.820Z,98490.44
2018-12-08T22:46:17.986Z,98488.58
2018-12-08T22:48:46.159Z,98477.53
2018-12-08T22:51:14.317Z,98466.00
2018-12-08T22:53:42.459Z,98470.09
2018-12-08T22:56:10.565Z,98464.77
2018-12-08T22:58:38.744Z,98448.59
2018-12-08T23:01:07.113Z,98453.50
2018-12-08T23:03:35.288Z,98430.21
2018-12-08T23:06:03.590Z,98426.43
2018-12-08T23:08:31.770Z,98418.22
2018-12-08T23:11:01.438Z,98423.43
2018-12-08T23:13:30.307Z,98414.84
2018-12-08T23:15:58.567Z,98405.52
2018-12-08T23:18:26.706Z,98397.70
2018-12-08T23:20:54.896Z,98399.77
2018-12-08T23:23:23.375Z,98384.70
2018-12-08T23:25:51.525Z,98371.31
2018-12-08T23:28:19.687Z,98352.42
2018-12-08T23:30:47.811Z,98353.59
2018-12-08T23:33:15.997Z,98332.84
2018-12-08T23:35:44.297Z,98325.81
2018-12-08T23:38:12.447Z,98313.89
2018-12-08T23:40:40.610Z,98305.53
2018-12-08T23:43:08.819Z,98300.59
2018-12-08T23:45:37.027Z,98283.11
2018-12-08T23:48:05.922Z,98290.58
2018-12-08T23:50:34.131Z,98288.22
2018-12-08T23:53:02.220Z,98289.23
2018-12-08T23:55:30.497Z,98272.76
2018-12-08T23:57:58.765Z,98268.23
